Time;durP1;ratioP1;P1;durP2;ratioP2;P2;SDS_P1;SDS_P2;PMS_P1;PMS_P2;Temp;Humidity;BMP_temperature;BMP_pressure;BME280_temperature;BME280_humidity;BME280_pressure;Samples;Min_cycle;Max_cycle;Signal;HPM_P1;HPM_P2
2023/10/26 00:00:36;;;;;;;7.35;4.47;;;23.40;59.60;;;;;;6095310;23;87257;-89
2023/10/26 00:03:02;;;;;;;6.85;4.03;;;23.40;59.60;;;;;;6077684;23;90379;-89
2023/10/26 00:05:28;;;;;;;8.38;4.53;;;23.40;59.80;;;;;;6090547;23;90947;-88
2023/10/26 00:07:53;;;;;;;6.85;3.83;;;23.40;59.80;;;;;;6089078;23;87437;-89
2023/10/26 00:10:19;;;;;;;8.10;3.90;;;23.40;59.70;;;;;;6078182;23;89112;-88
2023/10/26 00:12:45;;;;;;;6.60;4.50;;;23.40;59.80;;;;;;6087559;23;90381;-90
2023/10/26 00:15:11;;;;;;;6.32;4.32;;;23.30;59.70;;;;;;6088222;23;89067;-89
2023/10/26 00:17:38;;;;;;;5.97;4.10;;;23.30;59.80;;;;;;6089786;23;87962;-89
2023/10/26 00:20:08;;;;;;;7.45;4.25;;;23.30;59.70;;;;;;6090543;23;87832;-90
2023/10/26 00:22:34;;;;;;;7.93;4.55;;;23.30;59.70;;;;;;6088910;23;90338;-89
2023/10/26 00:25:20;;;;;;;7.72;4.55;;;23.30;59.80;;;;;;6089186;23;87842;-89
2023/10/26 00:27:46;;;;;;;7.43;3.90;;;23.20;59.80;;;;;;6090649;23;88132;-90
2023/10/26 00:30:12;;;;;;;7.18;3.67;;;23.30;59.80;;;;;;6090020;23;88269;-90
2023/10/26 00:32:38;;;;;;;6.47;3.97;;;23.20;59.80;;;;;;6088976;23;89671;-90
2023/10/26 00:35:04;;;;;;;8.30;3.85;;;23.20;59.70;;;;;;6088520;23;88483;-90
2023/10/26 00:37:30;;;;;;;6.03;3.80;;;23.20;59.70;;;;;;6089618;23;87581;-89
2023/10/26 00:39:56;;;;;;;10.35;4.60;;;23.20;59.80;;;;;;6089492;23;87322;-89
2023/10/26 00:42:22;;;;;;;7.32;4.15;;;23.20;60.60;;;;;;6089467;23;90664;-90
2023/10/26 00:44:49;;;;;;;6.55;3.90;;;23.10;59.80;;;;;;6089103;23;90031;-88
2023/10/26 00:47:16;;;;;;;6.78;3.78;;;23.20;59.90;;;;;;6088701;23;87567;-89
2023/10/26 00:49:42;;;;;;;5.22;3.88;;;23.10;59.70;;;;;;6087780;23;89859;-90
2023/10/26 00:52:09;;;;;;;7.65;4.13;;;23.10;60.50;;;;;;6088629;23;91324;-90
2023/10/26 00:54:36;;;;;;;6.65;3.85;;;23.20;60.60;;;;;;6087995;23;90244;-90
2023/10/26 00:57:03;;;;;;;8.15;4.10;;;23.10;59.70;;;;;;6090240;23;87263;-89
2023/10/26 00:59:47;;;;;;;6.15;3.67;;;23.10;59.90;;;;;;6089221;23;88898;-89
2023/10/26 01:02:15;;;;;;;5.18;3.67;;;23.10;59.90;;;;;;6090625;23;92392;-89
2023/10/26 01:04:40;;;;;;;7.20;3.90;;;23.00;60.00;;;;;;6089322;23;90112;-88
2023/10/26 01:07:06;;;;;;;6.97;3.90;;;23.00;59.80;;;;;;6081049;23;87497;-89
2023/10/26 01:09:32;;;;;;;8.02;3.90;;;23.10;60.10;;;;;;6095321;23;86803;-89
2023/10/26 01:11:58;;;;;;;5.90;3.67;;;23.00;59.90;;;;;;6078434;23;90447;-89
2023/10/26 01:14:24;;;;;;;6.68;3.53;;;23.00;59.80;;;;;;6089284;23;91350;-89
2023/10/26 01:16:49;;;;;;;5.00;3.40;;;23.00;59.80;;;;;;6089023;23;92758;-89
2023/10/26 01:19:15;;;;;;;7.50;3.60;;;23.00;60.00;;;;;;6087976;23;88464;-90
2023/10/26 01:21:49;;;;;;;6.63;4.05;;;23.00;60.00;;;;;;6088707;23;90793;-90
2023/10/26 01:24:14;;;;;;;5.47;3.72;;;23.00;59.90;;;;;;6089397;23;88484;-88
2023/10/26 01:26:40;;;;;;;5.47;3.40;;;23.00;60.20;;;;;;6090543;23;86949;-90
2023/10/26 01:29:06;;;;;;;7.68;3.30;;;23.00;59.80;;;;;;6088749;23;88004;-89
2023/10/26 01:31:40;;;;;;;6.18;3.63;;;23.00;59.90;;;;;;6088853;23;90374;-89
2023/10/26 01:34:06;;;;;;;5.18;3.65;;;23.00;59.90;;;;;;6087597;23;90156;-89
2023/10/26 01:36:32;;;;;;;5.38;3.60;;;23.00;60.00;;;;;;6091860;23;87272;-89
2023/10/26 01:39:00;;;;;;;7.57;4.05;;;22.90;60.00;;;;;;6090634;23;88998;-91
2023/10/26 01:41:29;;;;;;;5.55;3.92;;;22.90;60.00;;;;;;6091709;23;88650;-89
2023/10/26 01:43:55;;;;;;;6.32;3.63;;;22.90;60.10;;;;;;6089969;23;93787;-89
2023/10/26 01:46:21;;;;;;;5.38;3.60;;;22.90;60.10;;;;;;6089863;23;87829;-89
2023/10/26 01:48:47;;;;;;;5.22;3.47;;;22.90;60.10;;;;;;6090065;23;88361;-91
2023/10/26 01:51:12;;;;;;;5.80;3.60;;;22.90;60.00;;;;;;6089745;23;90423;-90
2023/10/26 01:53:38;;;;;;;6.25;3.42;;;22.90;60.10;;;;;;6090148;23;88847;-89
2023/10/26 01:56:04;;;;;;;5.57;3.60;;;22.90;60.10;;;;;;6093748;23;87350;-89
2023/10/26 01:58:29;;;;;;;5.85;3.88;;;22.80;60.10;;;;;;6090245;23;88044;-89
2023/10/26 02:00:55;;;;;;;4.45;3.55;;;22.80;60.20;;;;;;6088790;23;87925;-89
2023/10/26 02:03:21;;;;;;;5.75;3.20;;;22.80;60.20;;;;;;6080654;22;90178;-90
2023/10/26 02:05:46;;;;;;;6.72;3.92;;;22.80;60.00;;;;;;6089134;23;88403;-90
2023/10/26 02:08:12;;;;;;;5.53;3.28;;;22.80;60.00;;;;;;6090811;23;89118;-88
2023/10/26 02:10:37;;;;;;;5.35;3.60;;;22.80;60.00;;;;;;6099165;23;87982;-88
2023/10/26 02:13:03;;;;;;;5.38;3.35;;;22.80;60.90;;;;;;6087975;23;90442;-90
2023/10/26 02:15:29;;;;;;;4.57;3.00;;;22.80;60.10;;;;;;6089923;23;87563;-89
2023/10/26 02:18:12;;;;;;;4.57;3.03;;;22.80;60.10;;;;;;6091266;23;89119;-88
2023/10/26 02:20:37;;;;;;;5.38;3.75;;;22.80;60.20;;;;;;6089621;23;88838;-89
2023/10/26 02:23:04;;;;;;;5.80;3.38;;;22.80;60.10;;;;;;6090476;23;89994;-90
2023/10/26 02:25:30;;;;;;;7.00;3.78;;;22.80;60.10;;;;;;6092741;23;87256;-89
2023/10/26 02:27:57;;;;;;;4.78;3.10;;;22.80;60.20;;;;;;6089333;23;89656;-90
2023/10/26 02:30:23;;;;;;;5.82;3.45;;;22.70;60.00;;;;;;6090572;23;89138;-89
2023/10/26 02:32:48;;;;;;;4.95;3.08;;;22.70;59.90;;;;;;6089071;23;89871;-89
2023/10/26 02:35:15;;;;;;;4.50;3.47;;;22.70;59.90;;;;;;6091664;23;87370;-89
2023/10/26 02:37:41;;;;;;;6.32;3.30;;;22.70;60.00;;;;;;6089709;23;88365;-89
2023/10/26 02:40:10;;;;;;;3.63;2.88;;;22.70;60.10;;;;;;6090318;23;89240;-88
2023/10/26 02:42:36;;;;;;;4.93;3.58;;;22.70;60.10;;;;;;6091395;23;88500;-90
2023/10/26 02:45:03;;;;;;;4.95;3.20;;;22.70;60.20;;;;;;6091055;23;87447;-89
2023/10/26 02:47:29;;;;;;;5.32;3.05;;;22.70;60.30;;;;;;6090845;23;88062;-90
2023/10/26 02:49:55;;;;;;;5.13;3.53;;;22.70;60.20;;;;;;6090319;23;94399;-88
2023/10/26 02:52:38;;;;;;;4.43;2.95;;;22.60;60.10;;;;;;6091302;23;90311;-89
2023/10/26 02:55:05;;;;;;;5.70;2.90;;;22.60;60.00;;;;;;6088959;23;88375;-88
2023/10/26 02:57:31;;;;;;;4.13;2.92;;;22.60;60.10;;;;;;6090692;23;89822;-90
2023/10/26 02:59:57;;;;;;;4.63;3.28;;;22.60;59.90;;;;;;6078860;23;88784;-89
2023/10/26 03:02:23;;;;;;;3.78;2.90;;;22.60;60.00;;;;;;6091441;23;89515;-89
2023/10/26 03:04:49;;;;;;;5.32;3.28;;;22.60;60.10;;;;;;6091192;23;86932;-90
2023/10/26 03:07:22;;;;;;;4.45;3.20;;;22.60;60.10;;;;;;6098481;23;91894;-90
2023/10/26 03:09:49;;;;;;;5.38;3.38;;;22.60;60.20;;;;;;6090606;23;90372;-90
2023/10/26 03:12:14;;;;;;;5.03;3.30;;;22.60;60.20;;;;;;6085990;22;86802;-90
2023/10/26 03:14:40;;;;;;;4.95;3.38;;;22.60;60.10;;;;;;6089714;23;86893;-89
2023/10/26 03:17:06;;;;;;;4.70;3.13;;;22.60;60.00;;;;;;6091223;23;88824;-90
2023/10/26 03:19:32;;;;;;;5.30;3.15;;;22.60;60.00;;;;;;6090874;23;88430;-90
2023/10/26 03:21:58;;;;;;;4.97;3.40;;;22.60;60.10;;;;;;6089506;23;89854;-89
2023/10/26 03:24:24;;;;;;;4.72;3.30;;;22.60;60.20;;;;;;6091998;23;86927;-89
2023/10/26 03:26:49;;;;;;;5.03;3.17;;;22.60;60.30;;;;;;6092410;23;88655;-89
2023/10/26 03:29:15;;;;;;;4.40;3.22;;;22.60;60.10;;;;;;6090288;23;90241;-90
2023/10/26 03:31:41;;;;;;;4.80;3.25;;;22.50;60.30;;;;;;6091115;23;90350;-90
2023/10/26 03:34:07;;;;;;;4.55;2.90;;;22.50;60.10;;;;;;6090076;23;87568;-91
2023/10/26 03:36:33;;;;;;;3.92;2.78;;;22.50;60.40;;;;;;6091710;23;86330;-89
2023/10/26 03:38:58;;;;;;;3.22;2.78;;;22.50;60.30;;;;;;6089242;23;89970;-90
2023/10/26 03:41:24;;;;;;;3.65;2.95;;;22.50;60.30;;;;;;6089544;23;89277;-89
2023/10/26 03:43:50;;;;;;;3.97;2.80;;;22.50;60.20;;;;;;6089998;23;88537;-90
2023/10/26 03:46:16;;;;;;;5.22;2.80;;;22.50;60.30;;;;;;6089928;23;88125;-89
2023/10/26 03:48:42;;;;;;;4.28;2.80;;;22.50;60.20;;;;;;6090088;23;89441;-89
2023/10/26 03:51:08;;;;;;;3.30;2.72;;;22.50;60.10;;;;;;6092296;23;87194;-89
2023/10/26 03:53:33;;;;;;;3.25;2.72;;;22.50;60.00;;;;;;6088042;23;87634;-89
2023/10/26 03:55:59;;;;;;;2.90;2.45;;;22.50;60.10;;;;;;6090635;23;89758;-91
2023/10/26 03:58:25;;;;;;;3.75;2.45;;;22.40;59.90;;;;;;6088682;23;90034;-90
2023/10/26 04:00:51;;;;;;;3.38;2.88;;;22.40;60.10;;;;;;6089994;23;88761;-89
2023/10/26 04:03:17;;;;;;;3.33;2.80;;;22.40;60.20;;;;;;6092124;23;87598;-90
2023/10/26 04:05:43;;;;;;;3.38;2.83;;;22.40;60.00;;;;;;6088325;23;89632;-91
2023/10/26 04:08:09;;;;;;;3.47;2.78;;;22.40;60.00;;;;;;6090095;23;90525;-90
2023/10/26 04:10:36;;;;;;;3.75;2.50;;;22.40;60.10;;;;;;6091841;23;91353;-89
2023/10/26 04:13:01;;;;;;;3.95;2.35;;;22.40;60.20;;;;;;6090829;23;87825;-89
2023/10/26 04:15:27;;;;;;;5.32;3.05;;;22.40;60.00;;;;;;6090364;23;89636;-90
2023/10/26 04:17:53;;;;;;;3.42;2.72;;;22.40;60.00;;;;;;6089217;23;90264;-89
2023/10/26 04:20:20;;;;;;;3.95;2.33;;;22.40;60.00;;;;;;6091216;23;87659;-89
2023/10/26 04:22:46;;;;;;;4.40;2.63;;;22.40;59.90;;;;;;6092656;23;87268;-89
2023/10/26 04:25:13;;;;;;;3.13;2.25;;;22.40;60.00;;;;;;6090657;23;88496;-91
2023/10/26 04:27:38;;;;;;;4.47;2.83;;;22.40;60.20;;;;;;6091240;23;90942;-89
2023/10/26 04:30:05;;;;;;;4.00;2.85;;;22.40;60.20;;;;;;6091039;23;89631;-90
2023/10/26 04:32:30;;;;;;;3.47;2.33;;;22.40;60.00;;;;;;6090849;23;88433;-90
2023/10/26 04:34:56;;;;;;;3.40;2.75;;;22.40;60.10;;;;;;6090095;23;88329;-91
2023/10/26 04:37:22;;;;;;;3.42;2.90;;;22.40;60.20;;;;;;6093088;23;87110;-90
2023/10/26 04:39:47;;;;;;;4.10;2.95;;;22.30;60.10;;;;;;6091260;23;89731;-90
2023/10/26 04:42:13;;;;;;;3.38;2.50;;;22.30;60.20;;;;;;6089877;23;87449;-90
2023/10/26 04:44:39;;;;;;;3.83;2.83;;;22.30;60.10;;;;;;6089797;23;89630;-90
2023/10/26 04:47:05;;;;;;;4.03;2.83;;;22.30;59.90;;;;;;6092505;23;89985;-91
2023/10/26 04:49:33;;;;;;;3.80;2.70;;;22.30;60.00;;;;;;6089899;23;88963;-90
2023/10/26 04:51:59;;;;;;;4.00;2.63;;;22.30;60.00;;;;;;6090454;23;86904;-90
2023/10/26 04:54:27;;;;;;;4.75;2.72;;;22.30;60.10;;;;;;6088642;23;87695;-90
2023/10/26 04:56:53;;;;;;;4.25;2.80;;;22.30;60.20;;;;;;6090071;23;90647;-90
2023/10/26 04:59:18;;;;;;;3.17;2.15;;;22.30;60.10;;;;;;6090783;23;91758;-90
2023/10/26 05:01:44;;;;;;;3.67;2.60;;;22.30;60.20;;;;;;6092305;23;87843;-89
2023/10/26 05:04:10;;;;;;;2.67;2.25;;;22.30;60.10;;;;;;6088696;23;88407;-89
2023/10/26 05:06:36;;;;;;;5.03;2.85;;;22.30;60.00;;;;;;6090077;23;90165;-90
2023/10/26 05:09:01;;;;;;;3.72;2.20;;;22.30;60.00;;;;;;6089319;23;90555;-89
2023/10/26 05:11:27;;;;;;;3.28;2.30;;;22.20;59.90;;;;;;6092316;23;87666;-90
2023/10/26 05:13:53;;;;;;;4.47;2.35;;;22.20;59.90;;;;;;6092332;23;86172;-91
2023/10/26 05:16:19;;;;;;;2.60;2.40;;;22.30;59.80;;;;;;6093961;23;88551;-90
2023/10/26 05:18:45;;;;;;;3.72;2.30;;;22.20;59.80;;;;;;6089862;23;88890;-90
2023/10/26 05:21:10;;;;;;;2.72;2.22;;;22.20;59.80;;;;;;6091021;23;88450;-89
2023/10/26 05:23:39;;;;;;;3.72;2.10;;;22.20;59.80;;;;;;6092540;23;87452;-90
2023/10/26 05:26:05;;;;;;;3.83;2.65;;;22.20;59.80;;;;;;6093649;23;90041;-88
2023/10/26 05:28:31;;;;;;;3.75;2.38;;;22.20;59.90;;;;;;6093173;23;87336;-90
2023/10/26 05:30:56;;;;;;;3.42;2.28;;;22.20;59.80;;;;;;6090659;23;87331;-90
2023/10/26 05:33:22;;;;;;;3.47;2.88;;;22.20;59.90;;;;;;6092788;23;87945;-89
2023/10/26 05:35:48;;;;;;;3.47;2.40;;;22.20;59.80;;;;;;6092241;23;90025;-91
2023/10/26 05:38:16;;;;;;;3.83;2.58;;;22.20;59.70;;;;;;6092752;23;89837;-91
2023/10/26 05:40:49;;;;;;;3.13;2.38;;;22.20;59.70;;;;;;6094492;23;87224;-89
2023/10/26 05:43:15;;;;;;;3.60;2.28;;;22.20;59.70;;;;;;6089918;23;89331;-94
2023/10/26 05:45:40;;;;;;;3.58;2.47;;;22.20;59.80;;;;;;6091359;23;92028;-91
2023/10/26 05:48:08;;;;;;;2.83;2.00;;;22.20;59.80;;;;;;6093027;23;89834;-93
2023/10/26 05:50:34;;;;;;;3.22;2.22;;;22.20;59.70;;;;;;6091441;23;87480;-90
2023/10/26 05:53:00;;;;;;;2.95;2.45;;;22.20;59.70;;;;;;6095037;23;87033;-92
2023/10/26 05:55:25;;;;;;;5.35;2.85;;;22.20;60.00;;;;;;6089537;23;90397;-90
2023/10/26 05:57:51;;;;;;;3.67;2.97;;;22.20;59.60;;;;;;6090260;23;90179;-88
2023/10/26 06:00:17;;;;;;;5.50;2.88;;;22.20;60.30;;;;;;6091182;23;87561;-88
2023/10/26 06:02:42;;;;;;;3.95;2.55;;;22.20;59.90;;;;;;6090161;23;90520;-91
2023/10/26 06:05:08;;;;;;;3.28;2.60;;;22.20;59.70;;;;;;6091326;23;91172;-90
2023/10/26 06:07:34;;;;;;;3.53;2.35;;;22.20;59.40;;;;;;6090645;23;89046;-90
2023/10/26 06:09:59;;;;;;;3.78;2.40;;;22.20;59.60;;;;;;6090129;23;88100;-90
2023/10/26 06:12:25;;;;;;;2.92;2.38;;;22.20;59.20;;;;;;6089758;23;88995;-90
2023/10/26 06:14:50;;;;;;;6.53;2.60;;;22.20;59.20;;;;;;6079884;23;89930;-91
2023/10/26 06:17:16;;;;;;;2.35;2.15;;;22.10;59.10;;;;;;6093687;23;88830;-91
2023/10/26 06:19:42;;;;;;;3.88;2.20;;;22.20;59.10;;;;;;6094724;23;87029;-92
2023/10/26 06:22:07;;;;;;;3.28;2.40;;;22.20;59.10;;;;;;6092899;22;87542;-87
2023/10/26 06:24:33;;;;;;;4.07;2.25;;;22.10;59.10;;;;;;6094279;23;87540;-88
2023/10/26 06:26:59;;;;;;;3.35;2.47;;;22.10;58.80;;;;;;6075191;23;89114;-87
2023/10/26 06:29:25;;;;;;;2.97;2.20;;;22.10;59.00;;;;;;6090762;23;86870;-89
2023/10/26 06:31:50;;;;;;;4.47;2.05;;;22.10;58.90;;;;;;6092021;23;89308;-90
2023/10/26 06:34:16;;;;;;;2.58;1.90;;;22.10;58.50;;;;;;6090920;23;90341;-90
2023/10/26 06:36:42;;;;;;;4.40;2.40;;;22.10;58.80;;;;;;6090866;23;90829;-87
2023/10/26 06:39:07;;;;;;;3.40;2.13;;;22.10;58.80;;;;;;6091608;23;88417;-88
2023/10/26 06:41:33;;;;;;;2.30;1.90;;;22.10;58.80;;;;;;6092124;23;88998;-90
2023/10/26 06:43:58;;;;;;;3.60;1.92;;;22.10;58.70;;;;;;6093627;23;90464;-90
2023/10/26 06:46:24;;;;;;;3.60;2.15;;;22.00;58.70;;;;;;6090929;23;88927;-91
2023/10/26 06:48:50;;;;;;;3.75;2.15;;;22.00;58.70;;;;;;6089841;23;87179;-89
2023/10/26 06:51:36;;;;;;;2.45;2.05;;;22.00;58.60;;;;;;6094205;23;86982;-89
2023/10/26 06:54:01;;;;;;;3.95;2.20;;;22.00;58.70;;;;;;6089787;23;89856;-89
2023/10/26 06:56:27;;;;;;;3.38;2.30;;;22.00;58.70;;;;;;6093359;23;87653;-90
2023/10/26 06:58:53;;;;;;;3.75;2.20;;;22.00;58.70;;;;;;6091317;23;88262;-89
2023/10/26 07:01:18;;;;;;;2.22;1.77;;;22.00;58.70;;;;;;6092245;23;87264;-90
2023/10/26 07:03:44;;;;;;;5.38;2.50;;;22.00;58.60;;;;;;6091375;23;87968;-89
2023/10/26 07:06:09;;;;;;;3.97;2.15;;;22.00;58.70;;;;;;6082123;23;89947;-91
2023/10/26 07:08:36;;;;;;;3.33;2.15;;;22.00;58.60;;;;;;6094736;23;88146;-91
2023/10/26 07:11:08;;;;;;;2.97;2.20;;;22.00;58.20;;;;;;6068729;23;89838;-88
2023/10/26 07:13:34;;;;;;;2.88;1.80;;;22.00;58.70;;;;;;6082637;23;89841;-89
2023/10/26 07:16:00;;;;;;;3.67;2.08;;;22.00;58.70;;;;;;6090056;23;89851;-89
2023/10/26 07:18:26;;;;;;;3.08;2.50;;;22.00;58.70;;;;;;6080409;23;87161;-89
2023/10/26 07:20:53;;;;;;;4.07;2.10;;;22.10;58.70;;;;;;6104378;23;87494;-89
2023/10/26 07:23:18;;;;;;;3.38;2.28;;;22.00;59.00;;;;;;6088898;23;91084;-87
2023/10/26 07:26:02;;;;;;;4.15;2.15;;;22.00;59.00;;;;;;6075054;23;90927;-88
2023/10/26 07:28:28;;;;;;;6.95;2.72;;;22.00;59.00;;;;;;6090369;23;87333;-89
2023/10/26 07:30:54;;;;;;;11.60;3.83;;;22.00;58.90;;;;;;6089266;23;87904;-89
2023/10/26 07:33:19;;;;;;;9.23;3.50;;;22.00;59.20;;;;;;6091491;23;93654;-90
2023/10/26 07:35:52;;;;;;;9.18;3.42;;;22.00;59.20;;;;;;6087749;23;89671;-90
2023/10/26 07:38:18;;;;;;;12.70;3.65;;;22.00;59.20;;;;;;6085063;23;87317;-89
2023/10/26 07:40:48;;;;;;;9.25;2.70;;;22.10;59.50;;;;;;6089492;23;88031;-91
2023/10/26 07:43:14;;;;;;;11.95;4.40;;;22.10;59.90;;;;;;6088526;23;91844;-90
2023/10/26 07:45:40;;;;;;;14.77;3.70;;;22.10;60.00;;;;;;6091264;23;87769;-89
2023/10/26 07:48:05;;;;;;;10.65;3.95;;;22.10;60.00;;;;;;6087331;23;88614;-89
2023/10/26 07:50:31;;;;;;;8.52;3.42;;;22.10;60.30;;;;;;6088668;23;88196;-92
2023/10/26 07:52:57;;;;;;;9.85;3.70;;;22.20;60.30;;;;;;6092801;23;90147;-92
2023/10/26 07:55:40;;;;;;;7.82;3.30;;;22.20;60.30;;;;;;6090052;23;90424;-91
2023/10/26 07:58:06;;;;;;;11.00;3.72;;;22.20;60.60;;;;;;6091098;23;87449;-90
2023/10/26 08:00:32;;;;;;;10.93;4.43;;;22.20;61.00;;;;;;6091201;23;89333;-91
2023/10/26 08:02:58;;;;;;;9.27;3.65;;;22.20;61.20;;;;;;6078168;23;90420;-90
2023/10/26 08:05:24;;;;;;;9.82;3.42;;;22.20;61.50;;;;;;6089178;23;90020;-91
2023/10/26 08:07:51;;;;;;;16.40;3.60;;;22.20;61.70;;;;;;6089743;23;87034;-88
2023/10/26 08:10:16;;;;;;;10.23;4.05;;;22.20;60.80;;;;;;6078011;22;89297;-91
2023/10/26 08:12:42;;;;;;;15.93;3.97;;;22.20;60.40;;;;;;6086689;23;90006;-88
2023/10/26 08:15:08;;;;;;;12.90;4.72;;;22.20;60.60;;;;;;6071744;23;90972;-89
2023/10/26 08:17:36;;;;;;;8.27;3.55;;;22.20;59.50;;;;;;6088269;23;87673;-88
2023/10/26 08:20:07;;;;;;;8.25;3.55;;;22.20;60.40;;;;;;6084208;23;87947;-86
2023/10/26 08:22:33;;;;;;;7.25;3.53;;;22.20;61.10;;;;;;6084599;23;89781;-86
2023/10/26 08:24:59;;;;;;;10.63;5.30;;;22.20;61.30;;;;;;6086310;23;87437;-86
2023/10/26 08:27:35;;;;;;;8.70;4.00;;;22.20;62.30;;;;;;6085702;23;87427;-87
2023/10/26 08:30:02;;;;;;;6.97;4.10;;;22.30;61.80;;;;;;6083517;23;88869;-88
2023/10/26 08:32:27;;;;;;;10.43;4.38;;;22.30;64.30;;;;;;6087045;23;90730;-88
2023/10/26 08:34:56;;;;;;;9.30;5.45;;;22.20;62.80;;;;;;6086591;23;89923;-92
2023/10/26 08:37:23;;;;;;;10.63;5.88;;;22.20;65.00;;;;;;6086294;23;88313;-88
2023/10/26 08:39:49;;;;;;;9.52;4.35;;;22.30;63.30;;;;;;6087323;23;88163;-89
2023/10/26 08:42:15;;;;;;;22.33;8.52;;;22.30;61.70;;;;;;6084918;23;89195;-88
2023/10/26 08:44:42;;;;;;;13.38;6.90;;;22.30;61.30;;;;;;6085700;23;90052;-87
2023/10/26 08:47:10;;;;;;;9.27;6.22;;;22.30;60.60;;;;;;6090842;23;87380;-89
2023/10/26 08:49:38;;;;;;;12.93;6.80;;;22.30;60.20;;;;;;6087418;23;88468;-88
2023/10/26 08:52:07;;;;;;;18.50;5.57;;;22.30;60.10;;;;;;6089394;23;87904;-89
2023/10/26 08:54:32;;;;;;;9.85;4.50;;;22.20;60.10;;;;;;6089434;23;90329;-88
2023/10/26 08:57:06;;;;;;;14.05;5.45;;;22.30;60.70;;;;;;6090729;23;87363;-88
2023/10/26 08:59:42;;;;;;;13.38;5.70;;;22.30;59.90;;;;;;6088179;23;88179;-88
2023/10/26 09:02:08;;;;;;;10.40;5.10;;;22.20;59.80;;;;;;6086790;23;90080;-89
2023/10/26 09:04:34;;;;;;;8.10;4.63;;;22.30;60.00;;;;;;6088214;23;89460;-87
2023/10/26 09:06:59;;;;;;;8.30;4.93;;;22.30;59.90;;;;;;6073784;23;87387;-86
2023/10/26 09:09:25;;;;;;;7.93;5.03;;;22.30;58.70;;;;;;6094719;23;87400;-87
2023/10/26 09:11:50;;;;;;;10.20;5.55;;;22.40;58.90;;;;;;6089099;23;87564;-84
2023/10/26 09:14:18;;;;;;;9.30;5.22;;;22.40;59.10;;;;;;6085447;23;89899;-87
2023/10/26 09:16:45;;;;;;;11.32;5.10;;;22.30;59.20;;;;;;6085091;23;87522;-86
2023/10/26 09:19:17;;;;;;;7.72;4.50;;;22.40;70.70;;;;;;6087159;23;86608;-87
2023/10/26 09:21:56;;;;;;;9.43;5.28;;;22.40;61.20;;;;;;6085681;23;87708;-87
2023/10/26 09:24:26;;;;;;;32.57;10.83;;;22.50;60.30;;;;;;6086678;23;87599;-86
2023/10/26 09:27:03;;;;;;;43.05;13.32;;;22.50;60.50;;;;;;6087569;23;88390;-85
2023/10/26 09:29:42;;;;;;;39.03;13.30;;;22.50;60.20;;;;;;6090566;23;87249;-88
2023/10/26 09:32:09;;;;;;;36.58;12.45;;;22.50;59.70;;;;;;6088959;23;92156;-87
2023/10/26 09:34:47;;;;;;;27.92;12.52;;;22.50;60.00;;;;;;6086092;23;89490;-85
2023/10/26 09:37:13;;;;;;;27.70;11.43;;;22.50;60.10;;;;;;6088462;23;87497;-87
2023/10/26 09:39:41;;;;;;;28.38;10.68;;;22.50;60.20;;;;;;6087861;23;87942;-89
2023/10/26 09:42:09;;;;;;;28.75;11.32;;;22.50;59.80;;;;;;6088833;23;87952;-88
2023/10/26 09:44:36;;;;;;;27.98;11.07;;;22.40;60.90;;;;;;6087713;23;92550;-88
2023/10/26 09:47:02;;;;;;;29.65;11.32;;;22.40;63.60;;;;;;6087348;23;87528;-87
2023/10/26 09:49:37;;;;;;;33.92;12.55;;;22.40;63.30;;;;;;6086903;23;88045;-87
2023/10/26 09:52:04;;;;;;;28.63;11.00;;;22.40;67.50;;;;;;6088381;23;88980;-89
2023/10/26 09:54:35;;;;;;;23.50;10.77;;;22.40;65.30;;;;;;6089989;23;91087;-96
2023/10/26 09:57:13;;;;;;;26.17;10.55;;;22.40;64.60;;;;;;6095208;23;87069;-92
2023/10/26 09:59:39;;;;;;;23.45;10.88;;;22.30;62.30;;;;;;6101616;23;88016;-95
2023/10/26 10:02:18;;;;;;;23.67;10.35;;;22.30;61.40;;;;;;6101594;23;89786;-96
2023/10/26 10:04:44;;;;;;;20.67;10.55;;;22.30;61.10;;;;;;6109745;22;88358;-96
2023/10/26 10:08:14;;;;;;;21.52;10.57;;;22.20;60.40;;;;;;6108661;23;86888;-94
2023/10/26 10:11:29;;;;;;;23.13;11.25;;;22.20;60.20;;;;;;6128524;23;89479;-93
2023/10/26 10:13:55;;;;;;;20.55;10.80;;;22.20;59.40;;;;;;6023223;23;89471;-95
2023/10/26 10:16:58;;;;;;;16.77;9.43;;;22.20;59.20;;;;;;6084734;22;89962;-94
2023/10/26 10:19:26;;;;;;;13.85;8.88;;;22.10;58.30;;;;;;6097389;23;88290;-95
2023/10/26 10:21:52;;;;;;;13.90;9.38;;;22.20;57.90;;;;;;6083200;22;89630;-91
2023/10/26 10:24:42;;;;;;;14.65;9.25;;;22.10;57.20;;;;;;6093829;23;89255;-91
2023/10/26 10:27:12;;;;;;;14.35;9.32;;;22.10;57.30;;;;;;6067693;23;89214;-94
2023/10/26 10:29:41;;;;;;;14.65;8.80;;;22.10;57.20;;;;;;6098245;23;86969;-95
2023/10/26 10:32:07;;;;;;;13.60;8.63;;;22.10;57.00;;;;;;6100512;23;88342;-88
2023/10/26 10:34:43;;;;;;;14.93;8.57;;;22.10;57.20;;;;;;6089890;23;90491;-89
2023/10/26 10:37:13;;;;;;;15.55;8.07;;;22.10;60.00;;;;;;6095604;23;86990;-90
2023/10/26 10:39:59;;;;;;;15.32;8.18;;;22.20;62.70;;;;;;6094221;23;87642;-93
2023/10/26 10:42:25;;;;;;;18.73;7.82;;;22.20;62.70;;;;;;6096516;23;89326;-94
2023/10/26 10:44:52;;;;;;;12.90;8.13;;;22.20;64.00;;;;;;6100718;23;89167;-94
2023/10/26 10:47:18;;;;;;;17.13;8.13;;;22.20;65.70;;;;;;6100282;23;89985;-92
2023/10/26 10:49:46;;;;;;;12.50;7.82;;;22.20;66.80;;;;;;6092017;23;87347;-96
2023/10/26 10:52:15;;;;;;;14.48;7.55;;;22.20;66.60;;;;;;6100091;23;88740;-90
2023/10/26 10:54:59;;;;;;;46.03;10.68;;;22.20;65.80;;;;;;6101253;23;90019;-96
2023/10/26 10:57:25;;;;;;;16.63;9.15;;;22.20;62.70;;;;;;6082881;23;89288;-92
2023/10/26 10:59:52;;;;;;;20.15;10.02;;;22.20;61.10;;;;;;6086998;23;87330;-89
2023/10/26 11:02:19;;;;;;;19.15;8.38;;;22.10;59.60;;;;;;6094280;23;88442;-94
2023/10/26 11:04:52;;;;;;;14.30;8.77;;;22.10;61.80;;;;;;6096467;23;87571;-93
2023/10/26 11:07:23;;;;;;;19.58;8.20;;;22.10;60.60;;;;;;6083229;23;89930;-93
2023/10/26 11:09:49;;;;;;;15.68;7.93;;;22.10;59.40;;;;;;6091685;23;88002;-92
2023/10/26 11:12:15;;;;;;;9.13;7.40;;;22.10;58.80;;;;;;6083026;22;88740;-92
2023/10/26 11:14:52;;;;;;;12.32;7.65;;;22.10;58.80;;;;;;6105956;22;88208;-90
2023/10/26 11:17:28;;;;;;;8.93;6.72;;;22.00;59.00;;;;;;6092736;23;87659;-89
2023/10/26 11:19:55;;;;;;;9.50;6.40;;;22.10;60.40;;;;;;6089230;23;87762;-89
2023/10/26 11:22:21;;;;;;;10.77;6.53;;;22.10;60.60;;;;;;6088001;23;88198;-88
2023/10/26 11:24:48;;;;;;;8.68;5.22;;;22.10;60.70;;;;;;6089071;23;88530;-87
2023/10/26 11:27:21;;;;;;;9.43;5.65;;;22.10;61.10;;;;;;6089775;23;87246;-87
2023/10/26 11:30:04;;;;;;;13.75;5.68;;;22.20;61.10;;;;;;6087520;23;87516;-86
2023/10/26 11:32:30;;;;;;;11.55;5.20;;;22.20;61.10;;;;;;6090551;23;87355;-87
2023/10/26 11:35:29;;;;;;;7.90;5.28;;;22.20;61.20;;;;;;6088030;23;88796;-87
2023/10/26 11:38:02;;;;;;;9.15;4.97;;;22.20;61.30;;;;;;6086314;23;91243;-87
2023/10/26 11:40:31;;;;;;;7.13;4.95;;;22.20;61.50;;;;;;6089983;23;87804;-87
2023/10/26 11:43:03;;;;;;;9.50;4.25;;;22.20;61.40;;;;;;6087461;23;87433;-88
2023/10/26 11:45:29;;;;;;;6.70;4.03;;;22.20;61.00;;;;;;6089032;23;88479;-87
2023/10/26 11:47:57;;;;;;;7.07;4.43;;;22.30;61.30;;;;;;6088268;23;90337;-88
2023/10/26 11:50:25;;;;;;;6.68;4.32;;;22.30;61.40;;;;;;6089400;23;87124;-88
2023/10/26 11:53:17;;;;;;;6.82;3.88;;;22.30;61.20;;;;;;6088616;23;87359;-87
2023/10/26 11:55:43;;;;;;;7.97;4.22;;;22.40;61.30;;;;;;6082095;23;90555;-87
2023/10/26 11:58:08;;;;;;;7.47;4.07;;;22.40;62.00;;;;;;6088571;23;87563;-88
2023/10/26 12:00:34;;;;;;;7.93;3.95;;;22.40;61.50;;;;;;6087534;23;87942;-88
2023/10/26 12:03:00;;;;;;;5.93;4.38;;;22.40;61.20;;;;;;6073352;23;89683;-88
2023/10/26 12:05:27;;;;;;;5.82;3.95;;;22.40;60.50;;;;;;6088565;23;87750;-87
2023/10/26 12:07:53;;;;;;;8.77;3.80;;;22.50;61.00;;;;;;6089549;23;87375;-88
2023/10/26 12:10:22;;;;;;;6.65;3.65;;;22.40;60.90;;;;;;6075089;23;87476;-89
2023/10/26 12:12:48;;;;;;;5.72;3.63;;;22.50;60.70;;;;;;6084976;23;89632;-88
2023/10/26 12:15:14;;;;;;;9.90;3.55;;;22.50;61.10;;;;;;6086278;23;87487;-88
2023/10/26 12:17:40;;;;;;;5.45;3.35;;;22.50;61.00;;;;;;6086821;23;90284;-89
2023/10/26 12:20:06;;;;;;;5.80;3.45;;;22.50;61.10;;;;;;6087948;23;86975;-88
2023/10/26 12:22:32;;;;;;;9.00;3.88;;;22.50;61.30;;;;;;6088483;23;88345;-88
2023/10/26 12:24:58;;;;;;;7.78;3.25;;;22.50;61.00;;;;;;6085675;23;89697;-88
2023/10/26 12:27:31;;;;;;;5.03;3.30;;;22.50;61.20;;;;;;6087320;23;88965;-88
2023/10/26 12:29:57;;;;;;;6.85;3.97;;;22.40;61.70;;;;;;6084243;23;87988;-88
2023/10/26 12:32:23;;;;;;;4.00;3.03;;;22.40;60.90;;;;;;6089545;23;87244;-89
2023/10/26 12:34:50;;;;;;;4.88;3.33;;;22.40;60.90;;;;;;6085806;23;87927;-88
2023/10/26 12:37:15;;;;;;;10.07;3.40;;;22.40;61.00;;;;;;6086810;23;88306;-88
2023/10/26 12:39:41;;;;;;;4.80;3.20;;;22.40;60.90;;;;;;6089803;23;87546;-87
2023/10/26 12:42:06;;;;;;;11.13;4.20;;;22.40;60.90;;;;;;6088815;23;87721;-88
2023/10/26 12:44:32;;;;;;;7.45;3.25;;;22.40;60.80;;;;;;6085018;23;90261;-88
2023/10/26 12:46:58;;;;;;;4.13;3.30;;;22.40;61.00;;;;;;6087120;23;89918;-88